Wetterdaten: aktuell Sonntag, 05.12.2021 23:40
Datum Zeit Temp. I. Temp. A. Feuchte I. Feuchte A. Luftdruck Regen Wind Richtung Richtung Sonnenschein Zeit Regen ET Solar Taupunkt Windchill Windben Empfang
05.12.2021 23:40 22,9 C 1,8 C 44 % 94 % 1007,7 hPa 0,6 l/m 5,8 km/h S-SO 148 0 min 15 min 0,000 mm 0 W/m 0,9 C 1,8 C 16,1 km/h 100,00 %
05.12.2021 22:40 22,9 C 1,7 C 43 % 93 % 1007,5 hPa 0,6 l/m 0,0 km/h S-SO 158 0 min 15 min 0,000 mm 0 W/m 0,7 C 1,7 C 0,0 km/h 100,00 %
05.12.2021 21:40 22,9 C 1,8 C 44 % 93 % 1007,4 hPa 0,8 l/m 0,0 km/h S-SO 160 0 min 20 min 0,000 mm 0 W/m 0,8 C 1,8 C 0,0 km/h 100,00 %
05.12.2021 20:40 22,9 C 2,6 C 44 % 92 % 1007,2 hPa 0,2 l/m 2,8 km/h S-SO 157 0 min 4 min 0,000 mm 0 W/m 1,4 C 2,6 C 11,3 km/h 100,00 %
05.12.2021 19:40 22,9 C 2,7 C 42 % 93 % 1007,0 hPa 0,2 l/m 0,0 km/h S 172 0 min 5 min 0,000 mm 0 W/m 1,7 C 2,7 C 1,6 km/h 100,00 %
05.12.2021 18:35 22,9 C 2,6 C 42 % 93 % 1006,9 hPa 0,4 l/m 0,0 km/h SO 140 0 min 10 min 0,000 mm 0 W/m 1,6 C 2,6 C 0,0 km/h 100,00 %
05.12.2021 17:35 22,9 C 2,5 C 40 % 93 % 1006,6 hPa 0,0 l/m 0,3 km/h SO 140 0 min 0 min 0,000 mm 0 W/m 1,5 C 2,5 C 3,2 km/h 92,11 %
05.12.2021 16:35 23,1 C 2,6 C 39 % 93 % 1006,0 hPa 0,0 l/m 0,0 km/h SO 140 0 min 0 min 0,000 mm 0 W/m 1,6 C 2,6 C 0,0 km/h 100,00 %
05.12.2021 15:35 23,1 C 2,7 C 41 % 93 % 1005,8 hPa 0,0 l/m 0,2 km/h SO 142 0 min 0 min 0,026 mm 11 W/m 1,7 C 2,7 C 9,7 km/h 100,00 %
05.12.2021 14:35 23,1 C 2,8 C 41 % 93 % 1005,2 hPa 0,2 l/m 0,0 km/h S 182 0 min 5 min 0,025 mm 33 W/m 1,8 C 2,8 C 0,0 km/h 99,17 %
05.12.2021 13:35 23,1 C 2,0 C 42 % 93 % 1005,7 hPa 0,6 l/m 0,0 km/h N-NW 340 0 min 15 min 0,026 mm 51 W/m 1,0 C 2,0 C 0,0 km/h 100,00 %
05.12.2021 12:35 23,1 C 1,6 C 41 % 92 % 1005,9 hPa 1,2 l/m 0,0 km/h N-NW 340 0 min 30 min 0,025 mm 49 W/m 0,4 C 1,6 C 0,0 km/h 100,00 %
05.12.2021 11:35 23,1 C 3,2 C 41 % 91 % 1005,9 hPa 0,6 l/m 2,9 km/h S 169 0 min 15 min 0,025 mm 51 W/m 1,9 C 3,2 C 14,5 km/h 100,00 %
05.12.2021 10:35 23,1 C 3,4 C 43 % 90 % 1006,1 hPa 0,2 l/m 0,9 km/h S 184 0 min 5 min 0,026 mm 40 W/m 1,9 C 3,4 C 8,0 km/h 99,13 %
05.12.2021 09:35 23,1 C 3,8 C 43 % 89 % 1005,4 hPa 0,0 l/m 4,1 km/h S 190 0 min 0 min 0,025 mm 58 W/m 2,2 C 3,8 C 17,7 km/h 100,00 %
05.12.2021 08:35 23,1 C 3,4 C 42 % 90 % 1005,4 hPa 0,6 l/m 3,6 km/h SO 134 0 min 15 min 0,000 mm 23 W/m 1,9 C 3,4 C 17,7 km/h 100,00 %
05.12.2021 07:35 23,1 C 3,6 C 42 % 90 % 1004,7 hPa 1,6 l/m 13,4 km/h S-SW 210 0 min 30 min 0,026 mm 0 W/m 2,1 C -1,7 C 38,6 km/h 100,00 %
05.12.2021 06:35 23,1 C 4,4 C 42 % 90 % 1004,5 hPa 1,4 l/m 20,7 km/h S 191 0 min 33 min 0,025 mm 0 W/m 2,9 C -4,2 C 53,1 km/h 100,00 %
05.12.2021 05:35 23,1 C 5,2 C 42 % 90 % 1003,4 hPa 0,6 l/m 13,2 km/h S-SW 199 0 min 15 min 0,000 mm 0 W/m 3,7 C 0,3 C 37,0 km/h 100,00 %
05.12.2021 04:35 23,1 C 5,9 C 42 % 95 % 1002,5 hPa 0,2 l/m 7,7 km/h N 360 0 min 5 min 0,000 mm 0 W/m 5,2 C 4,8 C 35,4 km/h 99,12 %
05.12.2021 03:35 23,1 C 2,6 C 42 % 94 % 1001,8 hPa 0,0 l/m 0,0 km/h N-NW 330 0 min 0 min 0,000 mm 0 W/m 1,7 C 2,6 C 0,0 km/h 100,00 %
05.12.2021 02:35 23,1 C 2,4 C 42 % 94 % 1001,8 hPa 0,0 l/m 0,0 km/h N-NW 330 0 min 0 min 0,000 mm 0 W/m 1,5 C 2,4 C 0,0 km/h 100,00 %
05.12.2021 01:35 23,1 C 2,3 C 42 % 94 % 1001,9 hPa 1,2 l/m 0,0 km/h N-NW 330 0 min 25 min 0,000 mm 0 W/m 1,4 C 2,3 C 0,0 km/h 100,00 %
05.12.2021 00:35 23,2 C 2,5 C 42 % 94 % 1002,3 hPa 0,6 l/m 0,0 km/h N-NW 330 0 min 15 min 0,000 mm 0 W/m 1,6 C 2,5 C 0,0 km/h 100,00 %
05.12.2021 00:00 23,2 C 1,9 C 42 % 94 % 1002,2 hPa 0,0 l/m 0,0 km/h NW 315 0 min 0 min 0,000 mm 0 W/m 1,0 C 1,9 C 1,6 km/h 100,00 %
_ Min-Zeit 17:45 12:25 16:40 05:40 03:15 - 00:00 - - - - - - 12:25 06:25 00:30 21:50
Minimum _ 22,8 C 1,6 C 38 % 89 % 1001,6 hPa - 0,0 km/h - - - - - - 0,4 C -4,9 C 0,0 km/h 81,74 %
_ Max-Zeit 00:00 04:45 20:25 04:15 23:40 01:00 06:25 - - 00:00 00:00 07:05 13:50 04:45 04:25 06:12 00:00
Maximum _ 23,2 C 6,3 C 44 % 95 % 1007,7 hPa 0,4 l/m 23,0 km/h
S-SO
- - 0 min 5 min 0,026 mm 84 W/m 5,4 C 5,4 C 66,0 km/h
S-SO
100,00 %
Durchschnitt _ 23,0 C 2,9 C 42 % 92 % 1005,1 hPa #12,0 l/m 2,8 km/h S-SO - #0 min. #4:42 h #0,229 mm 40 W/m 1,8 C 2,2 C 10,3 km/h 99,44 %